Archival Weather

Heathrow

Heathrow, United Kingdom (EGLL)

Report from: Thursday, June 23, 2022 3:20 PM BST
Current time: Tuesday, August 16, 2022 7:46 AM BST

Current weather
Weather history
Weather forecast

Temperature24.0°C (75.2°F)
Dew point12.0°C (53.6°F)
Winds 2 kts (1 m/s, 2.3 mph) Vrb
Winds variableWinds variable
Visibility6.2 mi. (10 km)
Clouds Sky clear
Altimeter29.77 in.Hg (1008 mB)
Relative humidity47 %
Density altitude1,419 ft. (432 m)
Remarks Fully automated report
Corrected report
No clouds detected
No significant changes expected in the next two hours
Flight conditions Visual Meteorological Conditions
Raw dataCOR EGLL 231420Z AUTO VRB02KT 9999 NCD 24/12 Q1008 NOSIG
An error has occurred. This application may no longer respond until reloaded. Reload 🗙